Station: Frankston (Ballam Park)  

  Atmospheric Gas Attenuation - ITU Rec 676-11   ----------------- dB/100km -----------------
Date Time Temp RH % AH g/m3 Dew Point Wind Direction Speed kph Gust kph Barometer mB Rainfall Since 9am 24GHz 47GHz 76GHz 122GHz 134GHz 241GHz
08/05 12:30 14.3 78 9.58 10.5 11 28 1022.7 0.2 21.6 27.7 44.0 115.5 111.7 385.0
08/05 12:20 15.5 74 9.78 10.9 17 32 1022.9 0.2 22.0 27.7 44.1 115.9 112.7 388.7
08/05 12:10 15.3 71 9.27 10.2 15 20 1022.9 0.2 20.9 26.9 42.2 110.6 106.1 365.6
08/05 12:00 15.3 72 9.4 10.3 11 26 1022.9 0.2 21.2 27.1 42.7 112.1 107.9 371.7
08/05 11:50 15.8 75 10.1 11.5 9 15 1022.9 0.2 22.7 28.1 45.3 119.0 116.6 402.3
08/05 11:40 15.1 77 9.93 11.1 9 26 1023 0.2 22.3 28.1 45.0 118.2 115.3 397.8
08/05 11:30 14.7 73 9.19 9.9 13 30 1023 0.2 20.8 27.0 42.2 110.6 105.9 364.7
08/05 11:20 15 75 9.62 10.6 11 20 1022.9 0.2 21.7 27.6 43.8 114.9 111.3 383.5
08/05 11:10 14.9 76 9.69 10.7 9 17 1022.8 0.2 21.8 27.7 44.1 115.8 112.3 387.3
08/05 11:00 14.7 78 9.82 10.9 7 15 1022.6 0.2 22.1 28.0 44.7 117.5 114.4 394.5
08/05 10:50 14.2 79 9.65 10.6 6 7 1022.6 0.2 21.8 27.9 44.3 116.4 112.8 388.8
08/05 10:40 14.7 85 10.7 12.3 7 13 1022.5 0.2 24.0 29.5 48.5 127.5 126.6 437.3
08/05 10:30 15.3 85 11.1 12.8 9 15 1022.2 0.2 24.8 30.0 49.8 131.0 131.3 453.5
08/05 10:20 14.2 89 10.87 12.5 6 7 1022.2 0.2 24.4 29.9 49.5 130.2 129.9 448.5
08/05 10:10 13.9 91 10.91 12.4 6 9 1022.2 0.2 24.5 30.1 49.9 131.2 131.0 452.2
08/05 10:00 14.1 93 11.29 13 7 20 1022.2 0 25.3 30.7 51.4 135.3 136.1 470.2
08/05 09:50 13.8 92 10.96 12.6 7 11 1022.2 0 24.6 30.2 50.2 131.9 131.8 455.3
08/05 09:40 13.6 94 11.06 12.6 6 7 1022.1 0 24.9 30.5 50.7 133.5 133.6 461.5
08/05 09:30 13.6 94 11.06 12.7 7 13 1022.2 0 24.9 30.5 50.7 133.5 133.6 461.6
08/05 09:20 13.4 94 10.93 12.4 7 15 1022.2 0 24.6 30.3 50.3 132.3 132.1 456.2
08/05 09:10 13.4 93 10.81 12.3 6 7 1021.9 0 24.3 30.1 49.7 130.8 130.3 450.0
08/05 09:00 13.5 92 10.76 12.2 7 17 1021.7 0 24.2 30.0 49.4 130.1 129.4 446.9
08/05 08:50 13.5 93 10.88 12.4 6 9 1021.5 12.4 24.5 30.2 50.0 131.4 131.1 452.8
08/05 08:40 13.4 94 10.93 12.4 7 13 1021.4 12.4 24.6 30.3 50.2 132.2 132.0 455.9
08/05 08:30 12.9 95 10.71 12.1 6 13 1021.3 12.4 24.2 30.1 49.6 130.4 129.7 447.7
08/05 08:20 12.6 95 10.51 11.9 7 13 1021.2 12.4 23.7 29.8 48.9 128.6 127.3 439.3
08/05 08:10 12.8 95 10.64 12.1 6 11 1021 12.4 24.0 30.0 49.3 129.7 128.8 444.6
08/05 08:00 12.7 97 10.8 12.2 4 9 1021.1 12.4 24.4 30.3 50.1 131.8 131.3 453.4
08/05 07:50 12.2 97 10.47 11.7 4 7 1020.8 12.4 23.7 29.9 48.9 128.7 127.3 439.4
08/05 07:40 12.2 97 10.47 11.7 6 9 1020.7 12.4 23.7 29.9 48.9 128.7 127.3 439.4
08/05 07:30 12.1 97 10.4 11.6 9 20 1020.7 12.4 23.5 29.8 48.7 128.1 126.5 436.4
08/05 07:20 12.1 97 10.4 11.6 7 13 1020.6 12.4 23.5 29.8 48.7 128.0 126.5 436.4
08/05 07:10 12 97 10.34 11.5 6 9 1020.4 12.2 23.4 29.7 48.5 127.5 125.8 433.8
08/05 07:00 12 98 10.45 11.7 11 26 1020.3 12.2 23.6 29.9 49.0 128.8 127.3 439.4
08/05 06:50 12.7 98 10.91 12.4 9 15 1020.3 12.2 24.6 30.5 50.5 133.0 132.8 458.7
08/05 06:40 12.7 98 10.91 12.4 6 9 1020.1 12 24.6 30.4 50.5 133.0 132.8 458.6
08/05 06:30 12.7 98 10.91 12.4 9 19 1020 12 24.6 30.4 50.5 133.0 132.8 458.6
08/05 06:20 12.5 99 10.89 12.3 9 17 1020 11.6 24.6 30.5 50.6 133.1 132.9 458.7
08/05 06:10 12.3 99 10.75 12.1 6 7 1019.9 11.6 24.3 30.3 50.1 131.8 131.2 452.7
08/05 06:00 12.4 99 10.82 12.2 9 22 1020.1 11.6 24.4 30.4 50.3 132.4 132.0 455.8
08/05 05:50 12.5 99 10.89 12.3 11 19 1020 11.6 24.6 30.5 50.6 133.1 132.9 458.7
08/05 05:40 12.5 99 10.89 12.3 7 11 1019.9 11.2 24.6 30.5 50.6 133.1 132.9 458.7
08/05 05:30 12.3 98 10.64 12 11 33 1019.7 9.6 24.0 30.1 49.6 130.4 129.5 447.1
08/05 05:20 12.4 98 10.71 12.1 11 15 1019.6 9.4 24.2 30.2 49.8 131.1 130.4 450.0
08/05 05:10 12.4 98 10.71 12.1 15 22 1019.5 8.2 24.2 30.2 49.8 131.1 130.4 450.0
08/05 05:00 12.4 98 10.71 12.1 7 17 1019.5 8.2 24.2 30.2 49.8 131.1 130.4 450.0
08/05 04:50 12.3 98 10.64 12 4 6 1019.4 7.4 24.0 30.1 49.6 130.4 129.5 447.0
08/05 04:40 12.3 97 10.53 11.8 7 7 1019.3 6.8 23.8 29.9 49.1 129.1 127.9 441.4
08/05 04:30 12.3 97 10.53 11.8 11 28 1019.3 6.8 23.8 29.9 49.1 129.1 127.9 441.4
08/05 04:20 12.3 97 10.53 11.8 9 15 1019 6 23.8 29.9 49.1 129.0 127.9 441.2
08/05 04:10 12.4 97 10.6 11.9 11 17 1019.1 6 23.9 30.0 49.3 129.7 128.7 444.3
08/05 04:00 12.4 96 10.49 11.8 9 19 1018.9 5.2 23.7 29.8 48.8 128.4 127.1 438.6
08/05 03:50 12.4 95 10.38 11.7 15 22 1018.8 4.8 23.5 29.6 48.3 127.1 125.5 433.0
08/05 03:40 12.4 95 10.38 11.6 13 20 1018.7 4.6 23.5 29.6 48.3 127.1 125.5 433.0
08/05 03:30 12.5 95 10.45 11.7 13 26 1018.7 4.4 23.6 29.6 48.6 127.7 126.3 436.0
08/05 03:20 12.7 94 10.46 11.7 17 24 1018.6 4.2 23.6 29.6 48.5 127.5 126.1 435.3
08/05 03:10 12.7 94 10.46 11.7 17 33 1018.4 4.2 23.6 29.6 48.5 127.5 126.1 435.2
08/05 03:00 12.5 94 10.34 11.6 15 26 1018.4 4.2 23.4 29.4 48.1 126.4 124.7 430.3
08/05 02:50 12.4 94 10.27 11.4 17 26 1018.5 4.2 23.2 29.4 47.8 125.8 123.9 427.4
08/05 02:40 12.4 93 10.16 11.3 13 19 1018.5 4 23.0 29.2 47.3 124.5 122.3 421.9
08/05 02:30 12.6 92 10.18 11.3 15 30 1018.7 4 23.0 29.1 47.3 124.4 122.3 421.9
08/05 02:20 12.7 91 10.13 11.2 11 17 1018.7 3.8 22.9 29.0 47.0 123.7 121.4 418.8
08/05 02:10 12.8 91 10.19 11.3 9 13 1018.7 3.8 23.0 29.1 47.2 124.2 122.1 421.3
08/05 02:00 12.6 92 10.18 11.3 15 32 1018.7 3.8 23.0 29.1 47.3 124.4 122.3 421.9
08/05 01:50 12.4 92 10.05 11.1 11 15 1018.7 3.8 22.8 29.0 46.9 123.2 120.8 416.5
08/05 01:40 12.5 92 10.12 11.2 15 26 1018.8 3.8 22.9 29.1 47.1 123.9 121.6 419.5
08/05 01:30 12.5 92 10.12 11.2 17 32 1018.9 3.8 22.9 29.1 47.1 123.9 121.6 419.5
08/05 01:20 12.4 92 10.05 11.1 22 30 1018.9 3.8 22.8 29.0 46.9 123.3 120.8 416.6
08/05 01:10 12.4 92 10.05 11.1 15 20 1019 3.8 22.8 29.0 46.9 123.3 120.8 416.6
08/05 01:00 12.4 92 10.05 11.1 17 32 1019.2 3.8 22.8 29.0 46.9 123.3 120.8 416.7
08/05 00:50 12.3 92 9.99 11 15 20 1019.3 3.8 22.6 28.9 46.7 122.8 120.1 414.2
08/05 00:40 12.2 92 9.93 10.9 17 30 1019.3 3.8 22.5 28.9 46.5 122.2 119.4 411.8
08/05 00:30 12.1 92 9.87 10.8 19 37 1019.3 3.8 22.4 28.8 46.3 121.7 118.7 409.3
08/05 00:20 12 92 9.81 10.7 15 20 1019.4 3.8 22.3 28.7 46.1 121.2 118.1 406.9
08/05 00:10 12 93 9.91 10.9 24 32 1019.5 3.8 22.5 28.9 46.5 122.4 119.5 411.9
08/05 00:00 12 93 9.91 10.9 19 35 1019.6 3.8 22.5 28.9 46.6 122.4 119.5 412.0
07/05 23:50 11.9 93 9.85 10.8 19 30 1019.7 3.8 22.4 28.8 46.4 121.8 118.8 409.5
07/05 23:40 11.8 93 9.79 10.7 13 17 1019.8 3.8 22.2 28.8 46.2 121.3 118.1 407.1
07/05 23:30 11.7 93 9.73 10.6 17 35 1020 3.8 22.1 28.7 46.0 120.8 117.4 404.7
07/05 23:20 11.5 93 9.61 10.4 17 28 1020 3.8 21.9 28.6 45.6 119.7 116.0 399.8
07/05 23:10 11.4 93 9.55 10.3 15 30 1020.1 3.8 21.7 28.5 45.4 119.2 115.3 397.4
07/05 23:00 11.4 94 9.65 10.5 17 32 1020.1 3.8 22.0 28.7 45.8 120.4 116.8 402.3
07/05 22:50 11.3 94 9.59 10.3 15 24 1020.6 3.8 21.8 28.6 45.6 119.9 116.1 400.0
07/05 22:40 11.2 93 9.43 10.1 13 19 1020.6 3.8 21.5 28.4 45.0 118.2 114.0 392.6
07/05 22:30 11.2 92 9.33 10 17 32 1020.7 3.6 21.3 28.2 44.6 117.0 112.6 387.7
07/05 22:20 11.2 90 9.12 9.7 22 32 1020.9 3.6 20.8 27.8 43.7 114.7 109.6 377.4
07/05 22:10 11.2 90 9.12 9.6 19 28 1020.9 3.4 20.8 27.8 43.7 114.7 109.6 377.4
07/05 22:00 11.4 89 9.14 9.7 19 37 1020.8 3.4 20.9 27.8 43.6 114.6 109.6 377.4
07/05 21:50 11.4 89 9.14 9.6 17 22 1020.8 3.4 20.9 27.8 43.6 114.6 109.6 377.4
07/05 21:40 11.4 89 9.14 9.6 19 32 1020.9 3.4 20.9 27.8 43.7 114.6 109.6 377.4
07/05 21:30 11.4 89 9.14 9.7 17 30 1020.7 3.4 20.9 27.8 43.6 114.6 109.6 377.3
07/05 21:20 11.4 89 9.14 9.6 17 24 1020.7 3.4 20.9 27.8 43.6 114.6 109.6 377.3
07/05 21:10 11.2 90 9.12 9.6 17 24 1020.8 3.4 20.8 27.8 43.7 114.7 109.6 377.4
07/05 21:00 11.1 91 9.17 9.7 19 35 1020.7 3.4 20.9 28.0 43.9 115.4 110.5 380.3
07/05 20:50 10.9 91 9.05 9.5 11 17 1020.8 3.4 20.7 27.8 43.5 114.3 109.1 375.4
07/05 20:40 10.9 91 9.05 9.5 11 19 1020.9 3.4 20.7 27.8 43.5 114.3 109.1 375.4
07/05 20:30 10.7 90 8.84 9.1 17 35 1021 3.4 20.2 27.5 42.8 112.2 106.4 366.1
07/05 20:20 10.7 88 8.65 8.8 15 22 1021.2 3.4 19.8 27.2 42.0 110.1 103.8 356.9
07/05 20:10 10.8 87 8.6 8.7 17 22 1021.4 3.4 19.7 27.1 41.7 109.4 103.0 354.1
07/05 20:00 10.9 84 8.36 8.3 13 26 1021.5 3.2 19.2 26.7 40.7 106.6 99.6 342.1

Last Refresh: 08-May-2026 12:07:20

Bureau of Meteorology